Time;durP1;ratioP1;P1;durP2;ratioP2;P2;SDS_P1;SDS_P2;PMS_P1;PMS_P2;Temp;Humidity;BMP_temperature;BMP_pressure;BME280_temperature;BME280_humidity;BME280_pressure;Samples;Min_cycle;Max_cycle;Signal;HPM_P1;HPM_P2
2022/01/03 00:01:29;;;;;;;;;3.00;2.00;;;;;16.05;56.00;101142.00;6221322;22;45375;-82
2022/01/03 00:03:55;;;;;;;;;4.33;3.33;;;;;15.99;56.00;101142.00;6192609;22;45491;-82
2022/01/03 00:06:21;;;;;;;;;4.00;4.00;;;;;15.89;55.92;101132.19;6221828;22;45325;-81
2022/01/03 00:08:47;;;;;;;;;4.00;2.00;;;;;15.89;55.74;101133.06;6220984;22;45375;-81
2022/01/03 00:11:16;;;;;;;;;2.67;2.00;;;;;16.06;55.75;101145.56;6193530;22;45849;-81
2022/01/03 00:13:48;;;;;;;;;1.75;1.00;;;;;16.11;55.82;101155.41;6221172;22;45365;-81
2022/01/03 00:16:13;;;;;;;;;3.00;3.00;;;;;15.87;55.96;101133.97;6192611;22;45582;-81
2022/01/03 00:18:39;;;;;;;;;2.00;2.00;;;;;15.78;55.93;101143.84;6220796;22;45326;-81
2022/01/03 00:21:10;;;;;;;;;5.00;2.67;;;;;15.97;55.85;101147.38;6192643;22;45718;-81
2022/01/03 00:23:40;;;;;;;;;3.67;3.00;;;;;15.92;56.05;101140.25;6192959;22;45473;-81
2022/01/03 00:26:08;;;;;;;;;3.33;3.00;;;;;15.93;55.91;101153.63;6193031;22;45357;-81
2022/01/03 00:28:49;;;;;;;;;3.67;2.00;;;;;15.84;56.15;101144.72;6192401;22;47049;-81
2022/01/03 00:31:18;;;;;;;;;4.00;1.33;;;;;15.90;56.07;101150.09;6192489;22;45411;-81
2022/01/03 00:33:49;;;;;;;;;2.00;2.00;;;;;15.94;56.38;101158.13;6217867;22;45383;-81
2022/01/03 00:36:15;;;;;;;;;1.00;1.00;;;;;15.74;56.48;101160.81;6193283;22;45805;-81
2022/01/03 00:38:40;;;;;;;;;3.00;2.00;;;;;15.75;56.22;101172.44;6222908;22;45823;-81
2022/01/03 00:41:06;;;;;;;;;2.00;2.00;;;;;15.80;56.09;101182.25;6196277;22;45623;-81
2022/01/03 00:43:32;;;;;;;;;1.67;1.67;;;;;15.80;56.26;101176.03;6220777;22;45220;-81
2022/01/03 00:45:58;;;;;;;;;2.67;2.00;;;;;15.81;56.44;101172.44;6192778;22;45358;-81
2022/01/03 00:48:24;;;;;;;;;1.00;1.00;;;;;15.78;56.09;101167.09;6193711;22;47541;-81
2022/01/03 00:50:51;;;;;;;;;2.33;2.33;;;;;15.77;56.29;101173.31;6192727;22;45720;-81
2022/01/03 00:53:17;;;;;;;;;3.33;3.33;;;;;15.72;56.28;101172.41;6219971;22;45389;-80
2022/01/03 00:56:01;;;;;;;;;4.00;4.00;;;;;15.92;55.74;101159.03;6219978;22;45334;-81
2022/01/03 00:58:33;;;;;;;;;5.00;1.00;;;;;15.87;56.25;101176.91;6193012;22;47999;-81
2022/01/03 01:01:00;;;;;;;;;3.00;1.00;;;;;15.73;56.16;101169.75;6221148;22;45914;-81
2022/01/03 01:03:33;;;;;;;;;2.75;2.75;;;;;15.97;56.03;101173.31;6192478;22;45283;-81
2022/01/03 01:06:03;;;;;;;;;6.00;3.33;;;;;15.88;56.13;101179.59;6218905;22;45766;-81
2022/01/03 01:08:28;;;;;;;;;2.75;2.75;;;;;15.67;56.42;101180.44;6218277;22;46036;-81
2022/01/03 01:10:58;;;;;;;;;8.33;3.00;;;;;15.78;56.43;101177.81;6189945;22;45359;-82
2022/01/03 01:13:24;;;;;;;;;4.50;2.75;;;;;15.68;56.36;101186.72;6190214;22;45515;-81
2022/01/03 01:15:49;;;;;;;;;3.33;3.33;;;;;15.62;56.44;101176.88;6191459;22;44859;-82
2022/01/03 01:18:15;;;;;;;;;3.00;3.00;;;;;15.71;56.44;101178.66;6217578;22;45401;-82
2022/01/03 01:20:41;;;;;;;;;4.50;2.75;;;;;15.71;56.41;101168.81;6218913;22;45438;-82
2022/01/03 01:23:07;;;;;;;;;3.00;1.50;;;;;15.73;56.83;101164.38;6218523;22;45898;-82
2022/01/03 01:28:08;;;;;;;;;2.50;2.50;;;;;15.89;56.09;101169.75;6219689;22;44973;-82
2022/01/03 01:30:34;;;;;;;;;4.00;2.00;;;;;15.70;56.60;101177.78;6220284;22;45617;-81
2022/01/03 01:33:06;;;;;;;;;6.33;5.00;;;;;15.91;56.30;101173.31;6193023;22;45637;-82
2022/01/03 01:35:47;;;;;;;;;2.25;1.25;;;;;15.98;55.82;101164.38;6192714;22;45653;-82
2022/01/03 01:38:17;;;;;;;;;6.00;2.00;;;;;15.90;56.31;101160.81;6220669;22;45347;-81
2022/01/03 01:40:55;;;;;;;;;5.00;2.50;;;;;15.94;56.05;101167.97;6219981;22;45731;-81
2022/01/03 01:43:45;;;;;;;;;1.25;1.25;;;;;15.87;55.89;101167.06;6222441;22;44735;-82
2022/01/03 01:46:14;;;;;;;;;3.50;2.25;;;;;15.75;56.55;101168.00;6194830;22;45430;-82
2022/01/03 01:48:42;;;;;;;;;3.00;3.00;;;;;15.71;56.74;101166.13;6221719;22;45258;-82
2022/01/03 01:51:11;;;;;;;;;2.00;2.00;;;;;15.81;56.53;101150.97;6191701;22;45704;-82
2022/01/03 01:53:41;;;;;;;;;2.67;2.67;;;;;15.82;56.08;101165.28;6192113;22;45343;-82
2022/01/03 01:56:19;;;;;;;;;6.00;4.00;;;;;15.77;56.50;101139.38;6191760;22;45331;-81
2022/01/03 01:59:11;;;;;;;;;4.33;4.00;;;;;15.90;56.27;101145.59;6219086;22;46141;-81
2022/01/03 02:01:47;;;;;;;;;3.67;2.67;;;;;15.78;56.60;101142.94;6218937;22;45363;-82
2022/01/03 02:04:25;;;;;;;;;3.33;2.67;;;;;15.80;56.27;101147.41;6192362;22;45609;-82
2022/01/03 02:06:55;;;;;;;;;2.33;1.67;;;;;15.65;56.73;101150.03;6218605;22;45737;-81
2022/01/03 02:09:43;;;;;;;;;3.33;3.33;;;;;15.68;56.56;101163.47;6219779;22;45402;-81
2022/01/03 02:12:16;;;;;;;;;2.00;2.00;;;;;15.62;56.79;101165.25;6220979;22;45451;-81
2022/01/03 02:14:43;;;;;;;;;11.67;3.67;;;;;15.45;57.00;101167.91;6194611;22;45383;-81
2022/01/03 02:17:09;;;;;;;;;5.33;5.33;;;;;15.34;57.18;101163.44;6221106;22;45879;-81
2022/01/03 02:19:38;;;;;;;;;1.00;1.00;;;;;15.40;57.24;101159.88;6193278;22;47916;-81
2022/01/03 02:22:04;;;;;;;;;2.00;1.00;;;;;15.38;57.21;101159.88;6191426;22;44805;-81
2022/01/03 02:24:30;;;;;;;;;3.00;1.33;;;;;15.32;57.27;101149.16;6193943;22;45411;-81
2022/01/03 02:26:55;;;;;;;;;4.50;2.00;;;;;15.36;57.19;101164.34;6194988;22;45256;-81
2022/01/03 02:29:21;;;;;;;;;2.67;2.00;;;;;15.36;57.28;101158.97;6192963;22;47008;-81
2022/01/03 02:31:46;;;;;;;;;3.00;2.00;;;;;15.36;57.29;101164.34;6192106;22;45326;-81
2022/01/03 02:34:13;;;;;;;;;1.00;1.00;;;;;15.55;56.90;101167.03;6220857;22;45335;-82
2022/01/03 02:36:43;;;;;;;;;3.75;2.50;;;;;15.55;57.17;101167.03;6193076;22;45395;-82
2022/01/03 02:39:09;;;;;;;;;3.33;2.33;;;;;15.40;57.19;101179.53;6219923;22;45366;-82
2022/01/03 02:41:34;;;;;;;;;7.33;3.00;;;;;15.42;57.22;101178.66;6191698;22;45566;-81
2022/01/03 02:43:59;;;;;;;;;4.67;2.67;;;;;15.43;57.22;101169.69;6192417;22;45392;-80
2022/01/03 02:46:26;;;;;;;;;2.00;2.00;;;;;15.59;57.39;101166.13;6193158;22;45318;-81
2022/01/03 02:48:51;;;;;;;;;3.33;3.33;;;;;15.43;57.39;101162.59;6192620;22;46945;-81
2022/01/03 02:51:17;;;;;;;;;3.33;3.33;;;;;15.35;57.44;101157.22;6192184;22;44853;-81
2022/01/03 02:53:42;;;;;;;;;5.67;5.67;;;;;15.35;57.47;101178.66;6220646;22;45349;-81
2022/01/03 02:56:08;;;;;;;;;7.25;3.00;;;;;15.37;57.44;101170.59;6218936;22;45351;-81
2022/01/03 02:58:34;;;;;;;;;7.67;3.00;;;;;15.40;57.90;101160.78;6191208;22;47162;-82
2022/01/03 03:01:00;;;;;;;;;3.67;3.33;;;;;15.29;57.55;101162.56;6217926;22;45540;-82
2022/01/03 03:03:25;;;;;;;;;2.00;2.00;;;;;15.31;57.54;101165.22;6191549;22;45476;-82
2022/01/03 03:05:51;;;;;;;;;1.00;1.00;;;;;15.36;57.70;101150.94;6218432;22;44925;-82
2022/01/03 03:08:17;;;;;;;;;3.00;2.00;;;;;15.42;57.49;101141.13;6191471;22;46917;-82
2022/01/03 03:10:45;;;;;;;;;5.00;2.33;;;;;15.53;57.39;101145.59;6191297;22;45339;-80
2022/01/03 03:13:10;;;;;;;;;5.00;3.00;;;;;15.34;57.54;101131.28;6218622;22;45335;-81
2022/01/03 03:15:36;;;;;;;;;9.00;6.67;;;;;15.42;57.63;101135.78;6219518;22;45615;-81
2022/01/03 03:18:09;;;;;;;;;2.33;1.67;;;;;15.33;57.59;101121.47;6191344;22;46825;-82
2022/01/03 03:20:36;;;;;;;;;9.00;4.67;;;;;15.44;57.59;101133.97;6220318;22;45764;-81
2022/01/03 03:23:03;;;;;;;;;4.00;2.33;;;;;15.51;57.16;101135.75;6219177;22;45340;-82
2022/01/03 03:25:34;;;;;;;;;1.00;1.00;;;;;15.55;57.51;101127.75;6221421;22;45661;-82
2022/01/03 03:28:03;;;;;;;;;4.67;3.67;;;;;15.53;57.26;101128.59;6219344;22;45504;-81
2022/01/03 03:30:28;;;;;;;;;2.33;2.33;;;;;15.44;57.29;101124.16;6192764;22;45480;-82
2022/01/03 03:33:00;;;;;;;;;4.67;2.00;;;;;15.66;57.25;101129.50;6220020;22;45458;-82
2022/01/03 03:35:25;;;;;;;;;2.33;2.00;;;;;15.45;57.29;101141.13;6191233;22;45329;-81
2022/01/03 03:37:51;;;;;;;;;2.67;2.33;;;;;15.47;57.27;101133.97;6190952;22;47847;-82
2022/01/03 03:42:52;;;;;;;;;3.00;1.67;;;;;15.50;57.19;101125.94;6193147;22;45693;-82
2022/01/03 03:45:18;;;;;;;;;1.33;1.33;;;;;15.58;57.02;101126.84;6218867;22;45766;-82
2022/01/03 03:47:45;;;;;;;;;5.67;3.00;;;;;15.51;57.05;101114.31;6218372;22;48157;-82
2022/01/03 03:50:11;;;;;;;;;4.33;2.33;;;;;15.60;56.99;101120.56;6223293;22;45326;-82
2022/01/03 03:52:38;;;;;;;;;1.00;1.00;;;;;15.82;56.98;101114.34;6224065;22;45277;-82
2022/01/03 03:55:04;;;;;;;;;3.33;3.33;;;;;15.74;56.89;101114.34;6221054;22;46064;-82
2022/01/03 03:57:29;;;;;;;;;6.00;1.00;;;;;15.68;56.79;101115.22;6220313;22;48176;-82
2022/01/03 03:59:55;;;;;;;;;4.33;4.00;;;;;15.74;56.48;101106.31;6223755;22;45368;-82
2022/01/03 04:02:20;;;;;;;;;3.67;2.67;;;;;15.73;56.67;101110.75;6222706;22;45353;-82
2022/01/03 04:04:46;;;;;;;;;2.00;2.00;;;;;15.69;56.71;101100.00;6217833;22;45417;-82
2022/01/03 04:07:11;;;;;;;;;2.00;2.00;;;;;15.62;56.78;101101.81;6216864;22;46732;-82
2022/01/03 04:09:36;;;;;;;;;3.67;2.33;;;;;15.58;56.83;101095.53;6218060;22;44889;-82
2022/01/03 04:12:02;;;;;;;;;5.33;4.00;;;;;15.53;56.66;101085.72;6219615;22;45397;-82
2022/01/03 04:14:27;;;;;;;;;5.33;2.00;;;;;15.43;56.94;101084.84;6220291;22;45301;-82
2022/01/03 04:16:53;;;;;;;;;3.67;3.67;;;;;15.46;57.04;101089.31;6216746;22;47952;-82
2022/01/03 04:19:18;;;;;;;;;3.00;2.67;;;;;15.54;56.79;101108.97;6242759;22;45424;-82
2022/01/03 04:21:44;;;;;;;;;5.33;4.00;;;;;15.53;56.86;101093.75;6218531;22;45418;-82
2022/01/03 04:24:16;;;;;;;;;2.33;2.33;;;;;15.79;56.37;101075.00;6217850;22;45481;-82
2022/01/03 04:26:43;;;;;;;;;4.33;3.00;;;;;15.41;56.98;101075.88;6218949;22;47853;-82
2022/01/03 04:29:08;;;;;;;;;2.00;2.00;;;;;15.39;56.85;101067.88;6221840;22;45352;-82
2022/01/03 04:31:34;;;;;;;;;4.00;2.00;;;;;15.44;56.98;101083.94;6221197;22;45728;-82
2022/01/03 04:33:59;;;;;;;;;4.00;2.00;;;;;15.42;56.95;101074.13;6219683;22;45336;-82
2022/01/03 04:36:26;;;;;;;;;3.33;2.00;;;;;15.51;56.92;101060.69;6218322;22;46706;-83
2022/01/03 04:38:52;;;;;;;;;3.00;3.00;;;;;15.48;56.87;101066.97;6218560;22;45528;-82
2022/01/03 04:41:18;;;;;;;;;2.67;2.67;;;;;15.44;57.03;101064.28;6219708;22;45421;-82
2022/01/03 04:43:43;;;;;;;;;2.00;2.00;;;;;15.40;57.08;101064.28;6214907;22;45905;-82
2022/01/03 04:46:09;;;;;;;;;3.00;2.00;;;;;15.50;56.91;101069.66;6219678;22;47549;-82
2022/01/03 04:48:36;;;;;;;;;2.00;2.00;;;;;15.57;56.94;101058.94;6220551;22;46151;-82
2022/01/03 04:51:02;;;;;;;;;2.33;2.33;;;;;15.47;56.78;101064.28;6222207;22;45408;-82
2022/01/03 04:53:28;;;;;;;;;2.00;1.00;;;;;15.44;56.94;101062.50;6221144;22;45375;-81
2022/01/03 04:55:53;;;;;;;;;4.33;2.00;;;;;15.49;57.04;101063.41;6220918;22;45353;-82
2022/01/03 04:58:20;;;;;;;;;2.00;1.33;;;;;15.53;57.02;101070.56;6218725;22;45775;-82
2022/01/03 05:00:45;;;;;;;;;5.67;2.67;;;;;15.47;57.02;101064.28;6217729;22;45738;-82
2022/01/03 05:03:10;;;;;;;;;3.00;2.00;;;;;15.42;57.07;101060.72;6217182;22;44807;-82
2022/01/03 05:05:36;;;;;;;;;2.67;1.67;;;;;15.46;57.13;101060.72;6216406;22;47032;-82
2022/01/03 05:08:02;;;;;;;;;4.00;4.00;;;;;15.46;56.90;101052.66;6218951;22;45302;-82
2022/01/03 05:10:27;;;;;;;;;4.67;4.00;;;;;15.44;56.85;101042.84;6219531;22;45336;-83
2022/01/03 05:12:53;;;;;;;;;4.00;2.67;;;;;15.50;56.79;101048.22;6216587;22;45746;-82
2022/01/03 05:15:18;;;;;;;;;1.00;1.00;;;;;15.50;56.89;101058.94;6216734;22;48276;-82
2022/01/03 05:17:44;;;;;;;;;6.67;3.00;;;;;15.44;57.13;101053.56;6216878;22;45373;-82
2022/01/03 05:20:09;;;;;;;;;4.33;2.33;;;;;15.46;57.12;101057.16;6219577;22;45370;-82
2022/01/03 05:22:35;;;;;;;;;3.33;2.00;;;;;15.42;57.25;101055.38;6217756;22;45424;-82
2022/01/03 05:25:00;;;;;;;;;2.00;2.00;;;;;15.44;57.12;101053.56;6217705;22;47090;-82
2022/01/03 05:27:26;;;;;;;;;6.33;4.00;;;;;15.50;57.12;101058.94;6220231;22;45408;-82
2022/01/03 05:29:51;;;;;;;;;4.33;3.00;;;;;15.40;57.09;101048.19;6218667;22;45452;-80
2022/01/03 05:32:17;;;;;;;;;9.00;7.33;;;;;15.42;57.28;101064.28;6217425;22;45525;-81
2022/01/03 05:34:42;;;;;;;;;3.00;3.00;;;;;15.44;57.35;101058.94;6220519;22;48048;-80
2022/01/03 05:37:08;;;;;;;;;4.33;4.33;;;;;15.49;57.04;101065.16;6221411;22;45441;-82
2022/01/03 05:39:35;;;;;;;;;4.00;1.67;;;;;15.66;57.13;101060.69;6222318;22;45564;-82
2022/01/03 05:42:01;;;;;;;;;5.00;3.33;;;;;15.46;57.24;101058.03;6222430;22;45376;-82
2022/01/03 05:44:26;;;;;;;;;3.00;2.00;;;;;15.50;57.26;101064.28;6223512;22;45044;-82
2022/01/03 05:46:51;;;;;;;;;3.67;2.67;;;;;15.50;57.21;101061.59;6224455;22;45337;-82
2022/01/03 05:49:17;;;;;;;;;5.00;3.00;;;;;15.46;57.20;101060.72;6223870;22;45098;-81
2022/01/03 05:55:06;;;;;;;;;3.00;2.33;;;;;15.53;57.22;101059.81;6221736;22;45294;-81
2022/01/03 05:57:32;;;;;;;;;4.00;2.67;;;;;15.45;57.45;101066.97;6219656;22;45370;-81
2022/01/03 05:59:57;;;;;;;;;3.33;2.33;;;;;15.49;57.31;101059.81;6222864;22;45469;-81
2022/01/03 06:02:25;;;;;;;;;3.25;1.75;;;;;15.50;57.25;101066.97;6216279;22;45395;-82
2022/01/03 06:05:00;;;;;;;;;4.67;3.33;;;;;15.48;57.29;101060.72;6216830;22;47118;-82
2022/01/03 06:07:25;;;;;;;;;4.00;2.00;;;;;15.48;57.46;101060.72;6216632;22;45417;-82
2022/01/03 06:09:51;;;;;;;;;7.33;4.33;;;;;15.50;57.57;101058.94;6220057;22;45326;-82
2022/01/03 06:12:17;;;;;;;;;3.00;3.00;;;;;15.62;57.26;101061.59;6221241;22;45375;-82
2022/01/03 06:18:10;;;;;;;;;4.67;3.67;;;;;15.64;57.34;101062.47;6222218;22;45112;-82
2022/01/03 06:20:37;;;;;;;;;2.00;2.00;;;;;15.52;57.36;101060.69;6224043;22;45381;-82
2022/01/03 06:23:02;;;;;;;;;2.00;2.00;;;;;15.50;57.49;101062.50;6222884;22;44740;-82
2022/01/03 06:25:28;;;;;;;;;3.00;3.00;;;;;15.46;57.51;101055.34;6224443;22;45254;-82
2022/01/03 06:31:15;;;;;;;;;3.00;2.00;;;;;15.39;57.70;101046.44;6220786;22;45377;-81
2022/01/03 06:33:41;;;;;;;;;6.67;3.33;;;;;15.43;57.88;101051.78;6220043;22;45343;-81
2022/01/03 06:36:07;;;;;;;;;1.33;1.00;;;;;15.39;57.78;101049.13;6218967;22;46726;-82
2022/01/03 06:38:33;;;;;;;;;6.00;4.67;;;;;15.34;57.68;101036.59;6224380;22;45812;-82
2022/01/03 06:44:26;;;;;;;;;3.33;3.33;;;;;15.29;57.83;101028.56;6221374;22;45717;-81
2022/01/03 06:46:52;;;;;;;;;1.00;1.00;;;;;15.35;57.82;101033.00;6222768;22;47267;-81
2022/01/03 06:49:17;;;;;;;;;3.00;3.00;;;;;15.28;57.97;101016.06;6222354;22;45449;-81
2022/01/03 06:51:43;;;;;;;;;3.00;1.33;;;;;15.36;57.90;101035.69;6224572;22;44753;-81
2022/01/03 06:54:17;;;;;;;;;4.00;3.33;;;;;15.45;57.87;101041.94;6223780;22;45368;-82
2022/01/03 06:56:42;;;;;;;;;9.33;3.67;;;;;15.29;58.06;101027.66;6228439;22;45313;-81
2022/01/03 06:59:08;;;;;;;;;2.67;2.67;;;;;15.36;58.01;101029.47;6223641;22;45332;-81
2022/01/03 07:01:34;;;;;;;;;4.00;3.00;;;;;15.32;57.92;101033.91;6221226;22;45709;-82
2022/01/03 07:03:59;;;;;;;;;4.00;3.67;;;;;15.31;58.10;101031.22;6222154;22;45552;-82
2022/01/03 07:06:25;;;;;;;;;3.67;2.00;;;;;15.33;58.14;101027.69;6220017;22;48267;-80
2022/01/03 07:08:50;;;;;;;;;3.00;2.00;;;;;15.27;58.05;101013.38;6220527;22;45369;-82
2022/01/03 07:11:15;;;;;;;;;4.00;1.67;;;;;15.36;58.08;101018.75;6219840;22;45382;-80
2022/01/03 07:20:10;;;;;;;;;4.67;2.67;;;;;15.35;58.08;101017.84;6128633;23;45283;-83
2022/01/03 07:22:40;;;;;;;;;4.00;3.00;;;;;15.58;57.76;101019.59;6130664;23;45480;-83
2022/01/03 07:25:08;;;;;;;;;3.33;2.00;;;;;15.43;58.22;101009.81;6129810;23;45282;-83
2022/01/03 07:27:33;;;;;;;;;3.00;2.00;;;;;15.32;58.06;100996.41;6129147;23;45472;-83
2022/01/03 07:29:58;;;;;;;;;3.00;3.00;;;;;15.36;58.06;101019.63;6130680;23;45499;-83
2022/01/03 07:32:24;;;;;;;;;4.67;2.67;;;;;15.35;58.09;101012.50;6131092;23;45750;-82
2022/01/03 07:34:52;;;;;;;;;7.00;5.33;;;;;15.35;58.15;101007.13;6131229;23;45455;-81
2022/01/03 07:37:18;;;;;;;;;6.00;4.00;;;;;15.30;58.18;101010.72;6128679;23;45462;-81
2022/01/03 07:39:43;;;;;;;;;3.00;1.67;;;;;15.33;58.37;101008.00;6129709;23;45522;-81
2022/01/03 07:42:09;;;;;;;;;3.00;2.33;;;;;15.30;58.39;100995.50;6130288;23;45540;-82
2022/01/03 07:44:34;;;;;;;;;5.00;2.33;;;;;15.23;58.34;100996.44;6127363;23;45602;-81
2022/01/03 07:47:00;;;;;;;;;5.00;3.33;;;;;15.30;58.31;100997.31;6129696;23;45441;-81
2022/01/03 07:49:26;;;;;;;;;5.67;4.67;;;;;15.19;58.37;100987.50;6128840;23;44757;-81
2022/01/03 07:51:51;;;;;;;;;2.67;2.33;;;;;15.27;58.31;100997.28;6184496;22;44986;-82
2022/01/03 07:54:17;;;;;;;;;5.00;3.67;;;;;15.27;58.32;100992.84;6220500;22;45326;-81
2022/01/03 07:56:42;;;;;;;;;6.33;4.33;;;;;15.28;58.57;100994.63;6221512;22;47250;-81
2022/01/03 07:59:08;;;;;;;;;4.67;3.00;;;;;15.29;58.32;100991.06;6223451;22;45607;-82
2022/01/03 08:01:33;;;;;;;;;11.67;9.67;;;;;15.31;58.31;100988.34;6222250;22;45355;-82
2022/01/03 08:03:59;;;;;;;;;4.33;4.00;;;;;15.36;58.33;100987.47;6223125;22;45172;-82
2022/01/03 08:06:24;;;;;;;;;3.00;3.00;;;;;15.34;58.36;100991.94;6231188;22;45352;-83
2022/01/03 08:08:50;;;;;;;;;5.00;4.00;;;;;15.36;58.24;100982.09;6222345;22;45385;-82
2022/01/03 08:11:16;;;;;;;;;3.67;3.33;;;;;15.30;58.38;100976.75;6224848;22;45319;-80
2022/01/03 08:13:42;;;;;;;;;10.33;6.67;;;;;15.30;58.45;100974.06;6225088;22;45377;-82
2022/01/03 08:16:08;;;;;;;;;12.67;10.00;;;;;15.47;58.27;100981.19;6224663;22;45325;-82
2022/01/03 08:18:34;;;;;;;;;2.00;2.00;;;;;15.40;58.49;100981.19;6226068;22;45225;-81
2022/01/03 08:20:59;;;;;;;;;3.00;3.00;;;;;15.42;58.33;100991.03;6224964;22;45525;-81
2022/01/03 08:23:25;;;;;;;;;3.67;3.67;;;;;15.34;58.54;100980.31;6223035;22;45474;-81
2022/01/03 08:25:50;;;;;;;;;4.67;2.33;;;;;15.23;58.79;100958.91;6222517;22;47028;-84
2022/01/03 08:28:16;;;;;;;;;4.00;4.00;;;;;15.36;58.49;100983.91;6221652;22;45498;-83
2022/01/03 08:30:42;;;;;;;;;2.67;1.00;;;;;15.40;58.61;100962.44;6222941;22;45479;-82
2022/01/03 08:33:08;;;;;;;;;4.33;4.33;;;;;15.54;58.38;100956.16;6224449;22;45457;-82
2022/01/03 08:35:34;;;;;;;;;0.67;0.67;;;;;15.43;58.48;100966.00;6223554;22;45837;-83
2022/01/03 08:37:59;;;;;;;;;4.00;3.00;;;;;15.39;58.56;100952.63;6225592;22;44736;-83
2022/01/03 08:40:26;;;;;;;;;7.33;4.67;;;;;15.43;58.70;100944.56;6226088;22;45317;-83
2022/01/03 08:42:52;;;;;;;;;3.00;3.00;;;;;15.39;58.94;100952.63;6224566;22;45315;-84
2022/01/03 08:46:04;;;;;;;;;4.67;3.33;;;;;15.73;58.21;100952.53;6226251;22;45367;-83
2022/01/03 08:48:31;;;;;;;;;2.00;2.00;;;;;15.55;58.67;100949.88;6223535;22;45430;-82
2022/01/03 08:50:57;;;;;;;;;6.33;4.00;;;;;15.37;58.71;100935.66;6225643;22;44837;-83
2022/01/03 08:53:26;;;;;;;;;8.00;4.67;;;;;15.51;58.66;100930.28;6225733;22;45460;-83
2022/01/03 08:55:56;;;;;;;;;3.00;3.00;;;;;15.59;58.35;100922.16;6225533;22;45273;-83
2022/01/03 08:58:24;;;;;;;;;5.00;2.33;;;;;15.57;58.52;100922.19;6223201;22;45356;-82
2022/01/03 09:00:52;;;;;;;;;8.00;4.33;;;;;15.62;58.64;100937.38;6232552;22;44848;-83
2022/01/03 09:03:18;;;;;;;;;5.00;3.00;;;;;15.34;58.88;100929.41;6229000;22;45294;-82
2022/01/03 09:06:05;;;;;;;;;5.00;3.00;;;;;15.77;58.12;100948.06;6228926;22;45149;-83
2022/01/03 09:08:31;;;;;;;;;4.67;2.33;;;;;15.49;58.71;100945.47;6233684;22;44957;-82
2022/01/03 09:14:19;;;;;;;;;1.67;1.67;;;;;15.47;58.62;100940.97;6228041;22;45455;-82
2022/01/03 09:16:44;;;;;;;;;5.00;4.67;;;;;15.39;58.57;100936.56;6224079;22;45894;-82
2022/01/03 09:19:10;;;;;;;;;2.00;2.00;;;;;15.53;58.59;100941.88;6226442;22;44881;-81
2022/01/03 09:21:36;;;;;;;;;4.00;1.00;;;;;15.59;58.62;100947.22;6227722;22;45389;-84
2022/01/03 09:24:20;;;;;;;;;4.00;3.00;;;;;15.74;58.51;100958.81;6227015;22;45289;-81
2022/01/03 09:29:34;;;;;;;;;6.67;6.67;;;;;15.72;58.56;100952.53;6224360;22;45718;-81
2022/01/03 09:32:01;;;;;;;;;16.33;11.00;;;;;15.77;58.34;100951.66;6222138;22;45471;-82
2022/01/03 09:34:34;;;;;;;;;5.33;4.67;;;;;16.08;58.03;100946.16;6223514;22;45442;-80
2022/01/03 09:37:02;;;;;;;;;7.33;4.00;;;;;15.78;58.66;100937.34;6223965;22;47212;-81
2022/01/03 09:40:01;;;;;;;;;7.00;3.33;;;;;16.15;57.86;100938.94;6222703;22;45432;-82
2022/01/03 09:42:30;;;;;;;;;5.33;3.33;;;;;16.11;58.08;100948.78;6193224;22;45402;-81
2022/01/03 09:44:58;;;;;;;;;6.33;3.00;;;;;15.93;58.35;100940.84;6220524;22;45480;-82
2022/01/03 09:47:28;;;;;;;;;4.00;4.00;;;;;16.10;58.06;100944.34;6200943;22;47050;-82
2022/01/03 09:49:54;;;;;;;;;6.00;3.33;;;;;16.03;58.01;100949.75;6176160;22;44945;-82
2022/01/03 09:52:26;;;;;;;;;8.00;3.33;;;;;16.15;57.87;100936.25;6225601;22;45366;-82
2022/01/03 09:54:57;;;;;;;;;5.00;3.67;;;;;16.15;58.05;100955.03;6199860;22;45629;-82
2022/01/03 09:57:31;;;;;;;;;6.00;4.00;;;;;16.03;58.13;100952.44;6199646;22;47141;-81
2022/01/03 09:59:59;;;;;;;;;5.00;2.67;;;;;16.12;58.16;100936.28;6204105;22;45997;-83
2022/01/03 10:02:25;;;;;;;;;5.00;2.67;;;;;16.05;57.90;100938.09;6195494;22;45172;-82
2022/01/03 10:04:51;;;;;;;;;5.00;3.00;;;;;16.04;57.65;100930.03;6195749;22;45662;-81
2022/01/03 10:07:17;;;;;;;;;3.33;2.33;;;;;16.07;57.73;100933.63;6196164;22;45619;-83
2022/01/03 10:09:43;;;;;;;;;5.67;4.33;;;;;16.12;57.63;100936.28;6196195;22;45634;-81
2022/01/03 10:12:11;;;;;;;;;4.67;4.67;;;;;16.15;57.67;100937.16;6195678;22;45709;-81
2022/01/03 10:14:36;;;;;;;;;3.33;3.33;;;;;16.06;57.77;100937.22;6222338;22;45410;-81
2022/01/03 10:17:02;;;;;;;;;6.67;5.33;;;;;16.11;57.66;100932.69;6192901;22;45466;-81
2022/01/03 10:19:28;;;;;;;;;5.33;5.33;;;;;16.05;58.11;100927.38;6220590;22;44931;-80
2022/01/03 10:21:53;;;;;;;;;7.67;4.00;;;;;16.21;57.64;100930.84;6224550;22;44839;-80
2022/01/03 10:24:38;;;;;;;;;6.33;5.33;;;;;16.47;57.08;100914.56;6220397;22;45023;-80
2022/01/03 10:27:04;;;;;;;;;2.00;2.00;;;;;16.20;57.56;100913.00;6222663;22;45296;-81
2022/01/03 10:29:33;;;;;;;;;4.00;4.00;;;;;16.25;57.25;100910.25;6222608;22;44962;-81
2022/01/03 10:32:00;;;;;;;;;2.33;2.00;;;;;16.37;57.25;100918.22;6224179;22;45443;-80
2022/01/03 10:34:27;;;;;;;;;3.33;3.33;;;;;16.27;57.07;100908.47;6224628;22;45369;-80
2022/01/03 10:36:54;;;;;;;;;2.33;2.00;;;;;16.37;57.15;100910.19;6222119;22;47603;-81
2022/01/03 10:39:22;;;;;;;;;3.33;2.33;;;;;16.36;57.33;100893.19;6224167;22;45385;-81
2022/01/03 10:42:11;;;;;;;;;4.00;2.00;;;;;16.43;57.16;100894.03;6220282;22;45322;-80
2022/01/03 10:44:40;;;;;;;;;3.67;2.00;;;;;16.33;57.01;100887.81;6218683;22;44953;-81
2022/01/03 10:47:14;;;;;;;;;5.00;3.00;;;;;16.44;57.08;100879.72;6221569;22;47276;-82
2022/01/03 10:49:42;;;;;;;;;4.33;4.33;;;;;16.39;56.91;100873.47;6223606;22;45330;-81
2022/01/03 10:52:16;;;;;;;;;4.67;4.33;;;;;16.55;56.62;100872.44;6222412;22;45410;-81
2022/01/03 10:54:42;;;;;;;;;5.67;3.33;;;;;16.26;56.84;100861.03;6221460;22;45505;-81
2022/01/03 10:57:08;;;;;;;;;5.00;4.00;;;;;16.21;57.14;100858.41;6220266;22;45322;-81
2022/01/03 11:06:24;;;;;;;;;4.00;3.00;;;;;16.44;56.38;100847.50;6224914;22;45702;-81
2022/01/03 11:11:44;;;;;;;;;6.00;3.00;;;;;16.66;56.10;100842.81;6221555;22;45705;-79
2022/01/03 11:14:30;;;;;;;;;6.00;3.00;;;;;16.74;56.24;100845.41;6222556;22;45425;-81
2022/01/03 11:16:57;;;;;;;;;2.00;2.00;;;;;16.45;56.39;100837.66;6220291;22;45752;-80
2022/01/03 11:19:39;;;;;;;;;4.00;3.00;;;;;16.77;55.95;100840.03;6223966;22;45452;-81
2022/01/03 11:22:05;;;;;;;;;3.00;2.00;;;;;16.44;56.65;100833.16;6220008;22;45405;-80
2022/01/03 11:24:31;;;;;;;;;6.00;4.67;;;;;16.38;56.42;100810.84;6220745;22;45504;-80
2022/01/03 11:30:20;;;;;;;;;4.33;3.33;;;;;16.53;56.76;100812.50;6222787;22;45686;-81
2022/01/03 11:32:49;;;;;;;;;4.00;1.33;;;;;16.66;56.73;100815.06;6224911;22;45759;-80
2022/01/03 11:35:15;;;;;;;;;4.33;4.33;;;;;16.74;56.25;100818.56;6220342;22;45439;-80
2022/01/03 11:37:44;;;;;;;;;9.33;5.00;;;;;16.85;56.12;100805.97;6227053;22;45947;-80
2022/01/03 11:40:14;;;;;;;;;6.00;5.67;;;;;16.98;55.87;100818.34;6221493;22;47114;-81
2022/01/03 11:46:10;;;;;;;;;5.00;3.33;;;;;16.89;56.08;100796.97;6059160;23;45781;-80
2022/01/03 11:48:36;;;;;;;;;6.00;6.00;;;;;16.88;55.82;100795.16;6046972;23;45632;-81
2022/01/03 11:51:06;;;;;;;;;8.00;4.67;;;;;17.05;55.75;100786.03;6043806;23;46048;-79
2022/01/03 11:53:36;;;;;;;;;3.33;2.00;;;;;17.12;55.47;100793.13;6046406;23;44791;-80
2022/01/03 11:56:06;;;;;;;;;9.00;4.00;;;;;17.13;56.11;100779.66;6047421;23;45680;-81
2022/01/03 12:11:21;;;;;;;;;3.67;3.67;;;;;17.57;54.46;100739.63;6073780;23;45173;-81
2022/01/03 12:13:46;;;;;;;;;4.00;3.00;;;;;17.49;54.15;100733.47;6048341;23;47339;-81
2022/01/03 12:16:12;;;;;;;;;2.00;2.00;;;;;17.63;54.46;100728.78;6069471;23;45323;-80
2022/01/03 12:18:44;;;;;;;;;1.00;1.00;;;;;17.55;53.02;100701.13;6070927;23;45991;-81
2022/01/03 12:21:48;;;;;;;;;1.00;1.00;;;;;18.04;53.16;100726.38;6075095;23;45424;-81
2022/01/03 12:24:31;;;;;;;;;6.00;5.00;;;;;18.17;52.79;100720.75;6131632;23;45400;-82
2022/01/03 12:27:16;;;;;;;;;5.00;3.00;;;;;18.16;52.57;100710.91;6133793;23;45635;-81
2022/01/03 12:30:15;;;;;;;;;9.67;3.00;;;;;18.28;53.05;100719.66;6132069;23;45407;-84